sensor_id;sensor_type;location;lat;lon;timestamp;P1;durP1;ratioP1;P2;durP2;ratioP2
67685;SDS011;54469;52.090;4.312;2022-08-19T00:00:04;5.4;;;3.1;;
67685;SDS011;54469;52.090;4.312;2022-08-19T00:05:03;10.4;;;4.3;;
67685;SDS011;54469;52.090;4.312;2022-08-19T00:10:03;6.9;;;3.5;;
67685;SDS011;54469;52.090;4.312;2022-08-19T00:15:03;10.3;;;3.9;;
67685;SDS011;54469;52.090;4.312;2022-08-19T00:20:04;6.1;;;3.5;;
67685;SDS011;54469;52.090;4.312;2022-08-19T00:25:03;6.1;;;3.5;;
67685;SDS011;54469;52.090;4.312;2022-08-19T00:30:04;8.4;;;3.8;;
67685;SDS011;54469;52.090;4.312;2022-08-19T00:35:03;8.4;;;3.8;;
67685;SDS011;54469;52.090;4.312;2022-08-19T00:40:04;8.4;;;3.8;;
67685;SDS011;54469;52.090;4.312;2022-08-19T00:45:03;13.1;;;4.7;;
67685;SDS011;54469;52.090;4.312;2022-08-19T00:50:03;10.199999999999998;;;4.3;;
67685;SDS011;54469;52.090;4.312;2022-08-19T00:55:04;10.199999999999998;;;4.3;;
67685;SDS011;54469;52.090;4.312;2022-08-19T01:00:05;10.199999999999998;;;4.3;;
67685;SDS011;54469;52.090;4.312;2022-08-19T01:05:05;10.199999999999998;;;4.3;;
67685;SDS011;54469;52.090;4.312;2022-08-19T01:10:04;10.9;;;5.3;;
67685;SDS011;54469;52.090;4.312;2022-08-19T01:15:03;10.9;;;6.8;;
67685;SDS011;54469;52.090;4.312;2022-08-19T01:20:03;13.2;;;7.9;;
67685;SDS011;54469;52.090;4.312;2022-08-19T01:25:03;13.2;;;7.9;;
67685;SDS011;54469;52.090;4.312;2022-08-19T01:30:04;16.4;;;8.699999999999998;;
67685;SDS011;54469;52.090;4.312;2022-08-19T01:35:04;18.899999999999995;;;11.6;;
67685;SDS011;54469;52.090;4.312;2022-08-19T01:40:03;20.9;;;14.1;;
67685;SDS011;54469;52.090;4.312;2022-08-19T01:45:04;25.5;;;15;;
67685;SDS011;54469;52.090;4.312;2022-08-19T01:50:03;23.4;;;15;;
67685;SDS011;54469;52.090;4.312;2022-08-19T01:55:03;28.9;;;15.1;;
67685;SDS011;54469;52.090;4.312;2022-08-19T02:00:04;28.6;;;16.8;;
67685;SDS011;54469;52.090;4.312;2022-08-19T02:05:03;28.6;;;16.8;;
67685;SDS011;54469;52.090;4.312;2022-08-19T02:10:05;33.79999999999999;;;19.100000000000005;;
67685;SDS011;54469;52.090;4.312;2022-08-19T02:15:03;35.79999999999999;;;19.8;;
67685;SDS011;54469;52.090;4.312;2022-08-19T02:20:03;32.3;;;19.3;;
67685;SDS011;54469;52.090;4.312;2022-08-19T02:25:04;39.6;;;21.5;;
67685;SDS011;54469;52.090;4.312;2022-08-19T02:30:04;39.6;;;21.5;;
67685;SDS011;54469;52.090;4.312;2022-08-19T02:35:03;44.2;;;23.1;;
67685;SDS011;54469;52.090;4.312;2022-08-19T02:40:03;38.70000000000001;;;20.399999999999995;;
67685;SDS011;54469;52.090;4.312;2022-08-19T02:45:04;38.70000000000001;;;20.399999999999995;;
67685;SDS011;54469;52.090;4.312;2022-08-19T02:50:03;35.79999999999999;;;18.8;;
67685;SDS011;54469;52.090;4.312;2022-08-19T02:55:04;37.20000000000001;;;20.5;;
67685;SDS011;54469;52.090;4.312;2022-08-19T03:00:04;38.4;;;19.5;;
67685;SDS011;54469;52.090;4.312;2022-08-19T03:05:04;38.4;;;19.5;;
67685;SDS011;54469;52.090;4.312;2022-08-19T03:10:03;41.2;;;20.5;;
67685;SDS011;54469;52.090;4.312;2022-08-19T03:15:03;36;;;19.2;;
67685;SDS011;54469;52.090;4.312;2022-08-19T03:20:03;38;;;19.7;;
67685;SDS011;54469;52.090;4.312;2022-08-19T03:25:03;38;;;19.7;;
67685;SDS011;54469;52.090;4.312;2022-08-19T03:30:03;38;;;19.7;;
67685;SDS011;54469;52.090;4.312;2022-08-19T03:35:03;38;;;19.7;;
67685;SDS011;54469;52.090;4.312;2022-08-19T03:40:03;40.79999999999999;;;20.2;;
67685;SDS011;54469;52.090;4.312;2022-08-19T03:45:04;40.79999999999999;;;20.2;;
67685;SDS011;54469;52.090;4.312;2022-08-19T03:50:03;38.20000000000001;;;20.3;;
67685;SDS011;54469;52.090;4.312;2022-08-19T03:55:04;37.20000000000001;;;19.100000000000005;;
67685;SDS011;54469;52.090;4.312;2022-08-19T04:00:03;37.79999999999999;;;20.6;;
67685;SDS011;54469;52.090;4.312;2022-08-19T04:05:03;42;;;19.7;;
67685;SDS011;54469;52.090;4.312;2022-08-19T04:10:04;45.5;;;21.7;;
67685;SDS011;54469;52.090;4.312;2022-08-19T04:15:03;45.5;;;21.7;;
67685;SDS011;54469;52.090;4.312;2022-08-19T04:20:03;50.2;;;23.7;;
67685;SDS011;54469;52.090;4.312;2022-08-19T04:25:04;57.4;;;23.4;;
67685;SDS011;54469;52.090;4.312;2022-08-19T04:30:03;60.7;;;27.1;;
67685;SDS011;54469;52.090;4.312;2022-08-19T04:35:03;50.3;;;23.4;;
67685;SDS011;54469;52.090;4.312;2022-08-19T04:40:04;65.2;;;28.3;;
67685;SDS011;54469;52.090;4.312;2022-08-19T04:45:03;55.5;;;25.6;;
67685;SDS011;54469;52.090;4.312;2022-08-19T04:50:03;63.5;;;27.1;;
67685;SDS011;54469;52.090;4.312;2022-08-19T04:55:04;58.2;;;25.8;;
67685;SDS011;54469;52.090;4.312;2022-08-19T05:00:03;61.6;;;27;;
67685;SDS011;54469;52.090;4.312;2022-08-19T05:05:04;57.5;;;27.4;;
67685;SDS011;54469;52.090;4.312;2022-08-19T05:10:03;62.2;;;26.8;;
67685;SDS011;54469;52.090;4.312;2022-08-19T05:15:03;58.7;;;26.2;;
67685;SDS011;54469;52.090;4.312;2022-08-19T05:20:03;64.4;;;27.5;;
67685;SDS011;54469;52.090;4.312;2022-08-19T05:25:04;53.6;;;25;;
67685;SDS011;54469;52.090;4.312;2022-08-19T05:30:03;58.4;;;25.9;;
67685;SDS011;54469;52.090;4.312;2022-08-19T05:35:03;57.8;;;24.2;;
67685;SDS011;54469;52.090;4.312;2022-08-19T05:40:03;55.8;;;23.1;;
67685;SDS011;54469;52.090;4.312;2022-08-19T05:45:03;50.7;;;23.2;;
67685;SDS011;54469;52.090;4.312;2022-08-19T05:50:03;48.5;;;22.3;;
67685;SDS011;54469;52.090;4.312;2022-08-19T05:55:03;43.7;;;20.2;;
67685;SDS011;54469;52.090;4.312;2022-08-19T06:00:03;47.3;;;20.7;;
67685;SDS011;54469;52.090;4.312;2022-08-19T06:05:03;43.3;;;20.3;;
67685;SDS011;54469;52.090;4.312;2022-08-19T06:10:03;44.8;;;18.7;;
67685;SDS011;54469;52.090;4.312;2022-08-19T06:15:05;27.5;;;14.1;;
67685;SDS011;54469;52.090;4.312;2022-08-19T06:20:04;31.2;;;15.9;;
67685;SDS011;54469;52.090;4.312;2022-08-19T06:25:03;35.4;;;15.1;;
67685;SDS011;54469;52.090;4.312;2022-08-19T06:30:04;35.4;;;15.1;;
67685;SDS011;54469;52.090;4.312;2022-08-19T06:35:04;28.2;;;13.3;;
67685;SDS011;54469;52.090;4.312;2022-08-19T06:40:03;24.3;;;12.7;;
67685;SDS011;54469;52.090;4.312;2022-08-19T06:45:03;24.3;;;12.7;;
67685;SDS011;54469;52.090;4.312;2022-08-19T06:50:03;27.1;;;12.3;;
67685;SDS011;54469;52.090;4.312;2022-08-19T06:55:04;28.5;;;10.6;;
67685;SDS011;54469;52.090;4.312;2022-08-19T07:00:03;26.1;;;10.199999999999998;;
67685;SDS011;54469;52.090;4.312;2022-08-19T07:05:04;22.2;;;10.199999999999998;;
67685;SDS011;54469;52.090;4.312;2022-08-19T07:10:03;22.2;;;10.199999999999998;;
67685;SDS011;54469;52.090;4.312;2022-08-19T07:15:03;26.3;;;10.6;;
67685;SDS011;54469;52.090;4.312;2022-08-19T07:20:04;23.3;;;8.800000000000002;;
67685;SDS011;54469;52.090;4.312;2022-08-19T07:25:05;23.6;;;7.6;;
67685;SDS011;54469;52.090;4.312;2022-08-19T07:30:03;14;;;5;;
67685;SDS011;54469;52.090;4.312;2022-08-19T07:35:03;14;;;5;;
67685;SDS011;54469;52.090;4.312;2022-08-19T07:40:04;12;;;3.8;;
67685;SDS011;54469;52.090;4.312;2022-08-19T07:45:04;12;;;3.8;;
67685;SDS011;54469;52.090;4.312;2022-08-19T07:50:04;14.1;;;4.5;;
67685;SDS011;54469;52.090;4.312;2022-08-19T07:55:04;10.1;;;4.2;;
67685;SDS011;54469;52.090;4.312;2022-08-19T08:00:04;10.1;;;4.2;;
67685;SDS011;54469;52.090;4.312;2022-08-19T08:05:03;10.1;;;4.2;;
67685;SDS011;54469;52.090;4.312;2022-08-19T08:10:04;10.1;;;4.2;;
67685;SDS011;54469;52.090;4.312;2022-08-19T08:15:04;13.6;;;3.8;;
67685;SDS011;54469;52.090;4.312;2022-08-19T08:20:03;13.6;;;3.8;;
67685;SDS011;54469;52.090;4.312;2022-08-19T08:25:04;10.7;;;4.2;;
67685;SDS011;54469;52.090;4.312;2022-08-19T08:30:03;10.7;;;4.2;;
67685;SDS011;54469;52.090;4.312;2022-08-19T08:35:03;8.9;;;3.1;;
67685;SDS011;54469;52.090;4.312;2022-08-19T08:40:03;8.9;;;3.1;;
67685;SDS011;54469;52.090;4.312;2022-08-19T08:45:05;8.9;;;3.1;;
67685;SDS011;54469;52.090;4.312;2022-08-19T08:50:04;8.9;;;3.1;;
67685;SDS011;54469;52.090;4.312;2022-08-19T08:55:05;11.3;;;2.7;;
67685;SDS011;54469;52.090;4.312;2022-08-19T09:00:05;7.9;;;2.7;;
67685;SDS011;54469;52.090;4.312;2022-08-19T09:05:03;7.9;;;2.7;;
67685;SDS011;54469;52.090;4.312;2022-08-19T09:10:05;7.9;;;2.7;;
67685;SDS011;54469;52.090;4.312;2022-08-19T09:15:05;12;;;2.8;;
67685;SDS011;54469;52.090;4.312;2022-08-19T09:20:04;6.7;;;2.5;;
67685;SDS011;54469;52.090;4.312;2022-08-19T09:25:03;6.7;;;2.5;;
67685;SDS011;54469;52.090;4.312;2022-08-19T09:30:03;6.7;;;2.5;;
67685;SDS011;54469;52.090;4.312;2022-08-19T09:35:04;6.7;;;2.5;;
67685;SDS011;54469;52.090;4.312;2022-08-19T09:40:04;8.800000000000002;;;2.4;;
67685;SDS011;54469;52.090;4.312;2022-08-19T09:45:03;5;;;2.4;;
67685;SDS011;54469;52.090;4.312;2022-08-19T09:50:04;5;;;2.4;;
67685;SDS011;54469;52.090;4.312;2022-08-19T09:55:04;8;;;2.8;;
67685;SDS011;54469;52.090;4.312;2022-08-19T10:00:05;4.3;;;2.2;;
67685;SDS011;54469;52.090;4.312;2022-08-19T10:05:08;4.3;;;2.2;;
67685;SDS011;54469;52.090;4.312;2022-08-19T10:10:04;4.3;;;2.2;;
67685;SDS011;54469;52.090;4.312;2022-08-19T10:15:04;4.3;;;2.2;;
67685;SDS011;54469;52.090;4.312;2022-08-19T10:20:03;4.3;;;2.2;;
67685;SDS011;54469;52.090;4.312;2022-08-19T10:25:04;4.3;;;2.2;;
67685;SDS011;54469;52.090;4.312;2022-08-19T10:30:03;6.4;;;2.1;;
67685;SDS011;54469;52.090;4.312;2022-08-19T10:35:04;6.4;;;2.1;;
67685;SDS011;54469;52.090;4.312;2022-08-19T10:40:04;3.8;;;1.6;;
67685;SDS011;54469;52.090;4.312;2022-08-19T10:45:04;3.8;;;1.6;;
67685;SDS011;54469;52.090;4.312;2022-08-19T10:50:03;3.8;;;1.6;;
67685;SDS011;54469;52.090;4.312;2022-08-19T10:55:04;3.8;;;1.6;;
67685;SDS011;54469;52.090;4.312;2022-08-19T11:00:04;3.8;;;1.6;;
67685;SDS011;54469;52.090;4.312;2022-08-19T11:05:03;6.8;;;1.7;;
67685;SDS011;54469;52.090;4.312;2022-08-19T11:10:03;4.5;;;1.6;;
67685;SDS011;54469;52.090;4.312;2022-08-19T11:15:03;7.4;;;1.9;;
67685;SDS011;54469;52.090;4.312;2022-08-19T11:20:03;3.5;;;1.7;;
67685;SDS011;54469;52.090;4.312;2022-08-19T11:25:03;3.5;;;1.7;;
67685;SDS011;54469;52.090;4.312;2022-08-19T11:30:03;3.5;;;1.7;;
67685;SDS011;54469;52.090;4.312;2022-08-19T11:35:03;3.5;;;1.7;;
67685;SDS011;54469;52.090;4.312;2022-08-19T11:40:05;5.5;;;1.6;;
67685;SDS011;54469;52.090;4.312;2022-08-19T11:45:03;5.5;;;1.6;;
67685;SDS011;54469;52.090;4.312;2022-08-19T11:50:03;5.5;;;1.6;;
67685;SDS011;54469;52.090;4.312;2022-08-19T11:55:04;5.5;;;1.6;;
67685;SDS011;54469;52.090;4.312;2022-08-19T12:00:04;5.5;;;1.6;;
67685;SDS011;54469;52.090;4.312;2022-08-19T12:05:03;5.5;;;1.6;;
67685;SDS011;54469;52.090;4.312;2022-08-19T12:10:03;5.5;;;1.6;;
67685;SDS011;54469;52.090;4.312;2022-08-19T12:15:03;11.5;;;2.3;;
67685;SDS011;54469;52.090;4.312;2022-08-19T12:20:03;5.7;;;1.9;;
67685;SDS011;54469;52.090;4.312;2022-08-19T12:25:04;5.7;;;1.9;;
67685;SDS011;54469;52.090;4.312;2022-08-19T12:30:03;5.7;;;1.9;;
67685;SDS011;54469;52.090;4.312;2022-08-19T12:35:03;5.7;;;1.9;;
67685;SDS011;54469;52.090;4.312;2022-08-19T12:40:04;3.3;;;1.7;;
67685;SDS011;54469;52.090;4.312;2022-08-19T12:45:03;3.3;;;1.7;;
67685;SDS011;54469;52.090;4.312;2022-08-19T12:50:04;3.3;;;1.7;;
67685;SDS011;54469;52.090;4.312;2022-08-19T12:55:03;3.3;;;1.7;;
67685;SDS011;54469;52.090;4.312;2022-08-19T13:00:04;3.3;;;1.7;;
67685;SDS011;54469;52.090;4.312;2022-08-19T13:05:03;3.3;;;1.7;;
67685;SDS011;54469;52.090;4.312;2022-08-19T13:10:04;3.3;;;1.7;;
67685;SDS011;54469;52.090;4.312;2022-08-19T13:15:03;3.3;;;1.7;;
67685;SDS011;54469;52.090;4.312;2022-08-19T13:20:03;3.3;;;1.7;;
67685;SDS011;54469;52.090;4.312;2022-08-19T13:25:04;3.3;;;1.7;;
67685;SDS011;54469;52.090;4.312;2022-08-19T13:30:04;3.3;;;1.7;;
67685;SDS011;54469;52.090;4.312;2022-08-19T13:35:03;3.3;;;1.7;;
67685;SDS011;54469;52.090;4.312;2022-08-19T13:40:04;3.3;;;1.7;;
67685;SDS011;54469;52.090;4.312;2022-08-19T13:45:03;3.3;;;1.7;;
67685;SDS011;54469;52.090;4.312;2022-08-19T13:50:03;3.3;;;1.7;;
67685;SDS011;54469;52.090;4.312;2022-08-19T13:55:03;3.3;;;1.7;;
67685;SDS011;54469;52.090;4.312;2022-08-19T14:00:04;3.3;;;1.7;;
67685;SDS011;54469;52.090;4.312;2022-08-19T14:05:03;3.3;;;1.7;;
67685;SDS011;54469;52.090;4.312;2022-08-19T14:10:05;3.3;;;1.7;;
67685;SDS011;54469;52.090;4.312;2022-08-19T14:15:03;3.3;;;1.7;;
67685;SDS011;54469;52.090;4.312;2022-08-19T14:20:04;3.3;;;1.7;;
67685;SDS011;54469;52.090;4.312;2022-08-19T14:25:03;3.3;;;1.7;;
67685;SDS011;54469;52.090;4.312;2022-08-19T14:30:03;3.3;;;1.7;;
67685;SDS011;54469;52.090;4.312;2022-08-19T14:35:04;3.3;;;1.7;;
67685;SDS011;54469;52.090;4.312;2022-08-19T14:40:03;3.3;;;1.7;;
67685;SDS011;54469;52.090;4.312;2022-08-19T14:45:03;3.3;;;1.7;;
67685;SDS011;54469;52.090;4.312;2022-08-19T14:50:04;3.3;;;1.7;;
67685;SDS011;54469;52.090;4.312;2022-08-19T14:55:04;3.3;;;1.7;;
67685;SDS011;54469;52.090;4.312;2022-08-19T15:00:03;3.3;;;1.7;;
67685;SDS011;54469;52.090;4.312;2022-08-19T15:05:03;3.3;;;1.7;;
67685;SDS011;54469;52.090;4.312;2022-08-19T15:10:03;3.3;;;1.7;;
67685;SDS011;54469;52.090;4.312;2022-08-19T15:15:03;3.3;;;1.7;;
67685;SDS011;54469;52.090;4.312;2022-08-19T15:20:04;5.3;;;2.3;;
67685;SDS011;54469;52.090;4.312;2022-08-19T15:25:03;2.7;;;1.2;;
67685;SDS011;54469;52.090;4.312;2022-08-19T15:30:04;2.7;;;1.2;;
67685;SDS011;54469;52.090;4.312;2022-08-19T15:35:04;2.7;;;1.2;;
67685;SDS011;54469;52.090;4.312;2022-08-19T15:40:04;2.7;;;1.2;;
67685;SDS011;54469;52.090;4.312;2022-08-19T15:45:04;2.7;;;1.2;;
67685;SDS011;54469;52.090;4.312;2022-08-19T15:50:04;2.7;;;1.2;;
67685;SDS011;54469;52.090;4.312;2022-08-19T15:55:04;6.1;;;3.9;;
67685;SDS011;54469;52.090;4.312;2022-08-19T16:00:04;2.4;;;1.6;;
67685;SDS011;54469;52.090;4.312;2022-08-19T16:05:05;6.2;;;4;;
67685;SDS011;54469;52.090;4.312;2022-08-19T16:10:03;3;;;1.7;;
67685;SDS011;54469;52.090;4.312;2022-08-19T16:15:03;7.2;;;4.8;;
67685;SDS011;54469;52.090;4.312;2022-08-19T16:20:03;5.9;;;3;;
67685;SDS011;54469;52.090;4.312;2022-08-19T16:25:03;3;;;1.9;;
67685;SDS011;54469;52.090;4.312;2022-08-19T16:30:04;3;;;1.9;;
67685;SDS011;54469;52.090;4.312;2022-08-19T16:35:04;3;;;1.9;;
67685;SDS011;54469;52.090;4.312;2022-08-19T16:40:04;3;;;1.9;;
67685;SDS011;54469;52.090;4.312;2022-08-19T16:45:04;3;;;1.9;;
67685;SDS011;54469;52.090;4.312;2022-08-19T16:50:03;3;;;1.9;;
67685;SDS011;54469;52.090;4.312;2022-08-19T16:55:04;3;;;1.9;;
67685;SDS011;54469;52.090;4.312;2022-08-19T17:00:04;6.6;;;4.2;;
67685;SDS011;54469;52.090;4.312;2022-08-19T17:05:03;10.6;;;6.4;;
67685;SDS011;54469;52.090;4.312;2022-08-19T17:10:03;10.6;;;6.4;;
67685;SDS011;54469;52.090;4.312;2022-08-19T17:15:03;10.6;;;6.4;;
67685;SDS011;54469;52.090;4.312;2022-08-19T17:20:03;4;;;2.3;;
67685;SDS011;54469;52.090;4.312;2022-08-19T17:25:03;4;;;2.3;;
67685;SDS011;54469;52.090;4.312;2022-08-19T17:30:04;15.6;;;7.9;;
67685;SDS011;54469;52.090;4.312;2022-08-19T17:35:03;10;;;5.4;;
67685;SDS011;54469;52.090;4.312;2022-08-19T17:40:04;7.3;;;4;;
67685;SDS011;54469;52.090;4.312;2022-08-19T17:45:03;7.3;;;4;;
67685;SDS011;54469;52.090;4.312;2022-08-19T17:50:04;10;;;4.9;;
67685;SDS011;54469;52.090;4.312;2022-08-19T17:55:04;5.3;;;3;;
67685;SDS011;54469;52.090;4.312;2022-08-19T18:00:04;5.3;;;3;;
67685;SDS011;54469;52.090;4.312;2022-08-19T18:05:03;5.3;;;3;;
67685;SDS011;54469;52.090;4.312;2022-08-19T18:10:04;6;;;2;;
67685;SDS011;54469;52.090;4.312;2022-08-19T18:15:04;12.1;;;5.1;;
67685;SDS011;54469;52.090;4.312;2022-08-19T18:20:04;5.6;;;2.7;;
67685;SDS011;54469;52.090;4.312;2022-08-19T18:25:04;5.6;;;2.7;;
67685;SDS011;54469;52.090;4.312;2022-08-19T18:30:03;5.6;;;2.7;;
67685;SDS011;54469;52.090;4.312;2022-08-19T18:35:05;5.6;;;2.7;;
67685;SDS011;54469;52.090;4.312;2022-08-19T18:40:03;7.7;;;2.2;;
67685;SDS011;54469;52.090;4.312;2022-08-19T18:45:04;5.6;;;2.5;;
67685;SDS011;54469;52.090;4.312;2022-08-19T18:50:03;5.6;;;2.5;;
67685;SDS011;54469;52.090;4.312;2022-08-19T18:55:03;5.6;;;2.5;;
67685;SDS011;54469;52.090;4.312;2022-08-19T19:00:03;9.9;;;3.7;;
67685;SDS011;54469;52.090;4.312;2022-08-19T19:05:04;15.1;;;4.5;;
67685;SDS011;54469;52.090;4.312;2022-08-19T19:10:04;9.199999999999998;;;2.5;;
67685;SDS011;54469;52.090;4.312;2022-08-19T19:15:03;9.9;;;3.6;;
67685;SDS011;54469;52.090;4.312;2022-08-19T19:20:03;9.9;;;3.6;;
67685;SDS011;54469;52.090;4.312;2022-08-19T19:25:04;8;;;2.4;;
67685;SDS011;54469;52.090;4.312;2022-08-19T19:30:03;12.2;;;3;;
67685;SDS011;54469;52.090;4.312;2022-08-19T19:35:04;12.2;;;3;;
67685;SDS011;54469;52.090;4.312;2022-08-19T19:40:03;8.699999999999998;;;2.3;;
67685;SDS011;54469;52.090;4.312;2022-08-19T19:45:03;8.699999999999998;;;2.3;;
67685;SDS011;54469;52.090;4.312;2022-08-19T19:50:04;10.7;;;3.9;;
67685;SDS011;54469;52.090;4.312;2022-08-19T19:55:03;5.9;;;1.8;;
67685;SDS011;54469;52.090;4.312;2022-08-19T20:00:04;10.4;;;3.9;;
67685;SDS011;54469;52.090;4.312;2022-08-19T20:05:04;10.4;;;3.9;;
67685;SDS011;54469;52.090;4.312;2022-08-19T20:10:04;10.4;;;3.9;;
67685;SDS011;54469;52.090;4.312;2022-08-19T20:15:03;8.199999999999998;;;2.5;;
67685;SDS011;54469;52.090;4.312;2022-08-19T20:20:03;10.6;;;3.2;;
67685;SDS011;54469;52.090;4.312;2022-08-19T20:25:03;14.6;;;5.5;;
67685;SDS011;54469;52.090;4.312;2022-08-19T20:30:03;9.1;;;3.3;;
67685;SDS011;54469;52.090;4.312;2022-08-19T20:35:04;12.6;;;2.8;;
67685;SDS011;54469;52.090;4.312;2022-08-19T20:40:03;11;;;3.8;;
67685;SDS011;54469;52.090;4.312;2022-08-19T20:45:04;9.6;;;2.8;;
67685;SDS011;54469;52.090;4.312;2022-08-19T20:50:04;9.6;;;2.8;;
67685;SDS011;54469;52.090;4.312;2022-08-19T20:55:03;12.6;;;3;;
67685;SDS011;54469;52.090;4.312;2022-08-19T21:00:03;12.6;;;3;;
67685;SDS011;54469;52.090;4.312;2022-08-19T21:05:03;12.6;;;3;;
67685;SDS011;54469;52.090;4.312;2022-08-19T21:10:04;11.3;;;4.5;;
67685;SDS011;54469;52.090;4.312;2022-08-19T21:15:03;9;;;4.2;;
67685;SDS011;54469;52.090;4.312;2022-08-19T21:20:03;9;;;4.2;;
67685;SDS011;54469;52.090;4.312;2022-08-19T21:25:04;9;;;4.2;;
67685;SDS011;54469;52.090;4.312;2022-08-19T21:30:04;8.699999999999998;;;2.2;;
67685;SDS011;54469;52.090;4.312;2022-08-19T21:35:03;21.8;;;10.3;;
67685;SDS011;54469;52.090;4.312;2022-08-19T21:40:03;5.8;;;2.1;;
67685;SDS011;54469;52.090;4.312;2022-08-19T21:50:04;5.7;;;1.7;;
67685;SDS011;54469;52.090;4.312;2022-08-19T21:55:04;19.5;;;8.800000000000002;;
67685;SDS011;54469;52.090;4.312;2022-08-19T22:00:05;8.300000000000002;;;2.6;;
67685;SDS011;54469;52.090;4.312;2022-08-19T22:05:03;8.300000000000002;;;2.6;;
67685;SDS011;54469;52.090;4.312;2022-08-19T22:10:03;8.300000000000002;;;2.6;;
67685;SDS011;54469;52.090;4.312;2022-08-19T22:15:04;8.300000000000002;;;2.6;;
67685;SDS011;54469;52.090;4.312;2022-08-19T22:20:03;8.300000000000002;;;2.6;;
67685;SDS011;54469;52.090;4.312;2022-08-19T22:25:04;8.300000000000002;;;2.6;;
67685;SDS011;54469;52.090;4.312;2022-08-19T22:30:04;3.4;;;1.4;;
67685;SDS011;54469;52.090;4.312;2022-08-19T22:35:03;3.4;;;1.4;;
67685;SDS011;54469;52.090;4.312;2022-08-19T22:40:03;7.9;;;2;;
67685;SDS011;54469;52.090;4.312;2022-08-19T22:45:03;19;;;6.5;;
67685;SDS011;54469;52.090;4.312;2022-08-19T22:50:03;7;;;2.1;;
67685;SDS011;54469;52.090;4.312;2022-08-19T22:55:04;7;;;2.1;;
67685;SDS011;54469;52.090;4.312;2022-08-19T23:00:04;7;;;2.1;;
67685;SDS011;54469;52.090;4.312;2022-08-19T23:05:04;7;;;2.1;;
67685;SDS011;54469;52.090;4.312;2022-08-19T23:10:03;7;;;2.1;;
67685;SDS011;54469;52.090;4.312;2022-08-19T23:15:05;8.800000000000002;;;3.6;;
67685;SDS011;54469;52.090;4.312;2022-08-19T23:20:04;11.1;;;3.2;;
67685;SDS011;54469;52.090;4.312;2022-08-19T23:25:03;11.1;;;3.2;;
67685;SDS011;54469;52.090;4.312;2022-08-19T23:30:03;11.1;;;3.2;;
67685;SDS011;54469;52.090;4.312;2022-08-19T23:35:04;8.6;;;2.4;;
67685;SDS011;54469;52.090;4.312;2022-08-19T23:40:04;8.6;;;2.4;;
67685;SDS011;54469;52.090;4.312;2022-08-19T23:45:04;8.6;;;2.4;;
67685;SDS011;54469;52.090;4.312;2022-08-19T23:50:04;8.6;;;2.4;;
67685;SDS011;54469;52.090;4.312;2022-08-19T23:55:04;8.6;;;2.4;;
